Time,TemperatureF,DewpointF,PressureIn,WindDirection,WindDirectionDegrees,WindSpeedMPH,WindSpeedGustMPH,Humidity,HourlyPrecipIn,Conditions,Clouds,dailyrainin,SoftwareType,DateUTC
2013-02-12 00:06:00,25.5,24.3,29.82,West,270,8.9,-999.0,95,-99.99,,,0.00,Acu-Link.com,2013-02-12 06:06:00,
2013-02-12 00:21:00,25.5,24.3,29.83,SSW,202,5.8,-999.0,95,-99.99,,,0.00,Acu-Link.com,2013-02-12 06:21:00,
2013-02-12 00:37:00,25.5,24.3,29.83,SW,225,7.8,-999.0,95,-99.99,,,0.00,Acu-Link.com,2013-02-12 06:37:00,
2013-02-12 00:52:00,25.3,24.8,29.84,West,270,4.7,-999.0,98,-99.99,,,0.00,Acu-Link.com,2013-02-12 06:52:00,
2013-02-12 01:07:00,25.2,25.0,29.84,WSW,247,6.3,-999.0,99,-99.99,,,0.00,Acu-Link.com,2013-02-12 07:07:00,
2013-02-12 01:22:00,25.0,24.3,29.85,SW,225,6.3,-999.0,97,-99.99,,,0.00,Acu-Link.com,2013-02-12 07:22:00,
2013-02-12 01:37:00,24.6,23.9,29.85,SW,225,6.3,-999.0,97,-99.99,,,0.00,Acu-Link.com,2013-02-12 07:37:00,
2013-02-12 01:54:00,24.6,23.6,29.86,WSW,247,6.3,-999.0,96,-99.99,,,0.00,Acu-Link.com,2013-02-12 07:54:00,
2013-02-12 02:22:00,24.8,24.1,29.86,WSW,247,7.3,-999.0,97,-99.99,,,0.00,Acu-Link.com,2013-02-12 08:22:00,
2013-02-12 02:37:00,24.4,23.7,29.87,West,270,7.8,-999.0,97,-99.99,,,0.00,Acu-Link.com,2013-02-12 08:37:00,
2013-02-12 02:53:00,24.1,23.4,29.88,WSW,247,11.4,-999.0,97,-99.99,,,0.00,Acu-Link.com,2013-02-12 08:53:00,
2013-02-12 03:19:00,24.1,23.4,29.88,West,270,4.2,-999.0,97,-99.99,,,0.00,Acu-Link.com,2013-02-12 09:19:00,
2013-02-12 03:34:00,23.7,23.2,29.88,WNW,292,4.7,-999.0,98,-99.99,,,0.00,Acu-Link.com,2013-02-12 09:34:00,
2013-02-12 03:49:00,23.4,23.2,29.87,West,270,7.8,-999.0,99,-99.99,,,0.00,Acu-Link.com,2013-02-12 09:49:00,
2013-02-12 04:04:00,23.0,22.8,29.87,WSW,247,6.8,-999.0,99,-99.99,,,0.00,Acu-Link.com,2013-02-12 10:04:00,
2013-02-12 04:19:00,22.6,22.4,29.87,West,270,6.8,-999.0,99,-99.99,,,0.00,Acu-Link.com,2013-02-12 10:19:00,
2013-02-12 04:34:00,22.3,22.1,29.87,WSW,247,8.3,-999.0,99,-99.99,,,0.00,Acu-Link.com,2013-02-12 10:34:00,
2013-02-12 04:49:00,22.1,21.6,29.88,WSW,247,6.8,-999.0,98,-99.99,,,0.00,Acu-Link.com,2013-02-12 10:49:00,
2013-02-12 05:05:00,22.1,21.1,29.87,West,270,11.4,-999.0,96,-99.99,,,0.00,Acu-Link.com,2013-02-12 11:05:00,
2013-02-12 05:20:00,21.6,20.9,29.88,West,270,10.9,-999.0,97,-99.99,,,0.00,Acu-Link.com,2013-02-12 11:20:00,
2013-02-12 05:35:00,21.6,20.9,29.88,WSW,247,6.8,-999.0,97,-99.99,,,0.00,Acu-Link.com,2013-02-12 11:35:00,
2013-02-12 05:50:00,21.6,21.1,29.87,West,270,5.3,-999.0,98,-99.99,,,0.00,Acu-Link.com,2013-02-12 11:50:00,
2013-02-12 06:05:00,21.7,21.5,29.87,West,270,4.7,-999.0,99,-99.99,,,0.00,Acu-Link.com,2013-02-12 12:05:00,
2013-02-12 06:20:00,21.6,21.4,29.87,West,270,6.8,-999.0,99,-99.99,,,0.00,Acu-Link.com,2013-02-12 12:20:00,
2013-02-12 06:36:00,21.6,21.4,29.87,WSW,247,3.2,-999.0,99,-99.99,,,0.00,Acu-Link.com,2013-02-12 12:36:00,
2013-02-12 06:51:00,21.6,21.4,29.87,West,270,5.3,-999.0,99,-99.99,,,0.00,Acu-Link.com,2013-02-12 12:51:00,
2013-02-12 07:06:00,21.4,21.2,29.87,West,270,3.7,-999.0,99,-99.99,,,0.00,Acu-Link.com,2013-02-12 13:06:00,
2013-02-12 07:21:00,21.0,20.8,29.88,West,270,5.3,-999.0,99,-99.99,,,0.00,Acu-Link.com,2013-02-12 13:21:00,
2013-02-12 07:36:00,20.7,20.2,29.87,West,270,6.3,-999.0,98,-99.99,,,0.00,Acu-Link.com,2013-02-12 13:36:00,
2013-02-12 07:51:00,21.0,20.3,29.90,WSW,247,5.8,-999.0,97,-99.99,,,0.00,Acu-Link.com,2013-02-12 13:51:00,
2013-02-12 08:06:00,21.2,20.0,29.91,WSW,247,6.3,-999.0,95,-99.99,,,0.00,Acu-Link.com,2013-02-12 14:06:00,
2013-02-12 08:22:00,21.4,19.7,29.91,West,270,8.9,-999.0,93,-99.99,,,0.00,Acu-Link.com,2013-02-12 14:22:00,
2013-02-12 08:37:00,21.9,19.9,29.91,West,270,4.7,-999.0,92,-99.99,,,0.00,Acu-Link.com,2013-02-12 14:37:00,
2013-02-12 08:52:00,22.1,20.1,29.91,WNW,292,11.4,-999.0,92,-99.99,,,0.00,Acu-Link.com,2013-02-12 14:52:00,
2013-02-12 09:07:00,22.3,20.3,29.90,West,270,5.8,-999.0,92,-99.99,,,0.00,Acu-Link.com,2013-02-12 15:07:00,
2013-02-12 09:22:00,22.5,20.3,29.89,West,270,5.3,-999.0,91,-99.99,,,0.00,Acu-Link.com,2013-02-12 15:22:00,
2013-02-12 09:38:00,22.8,20.6,29.89,West,270,6.3,-999.0,91,-99.99,,,0.00,Acu-Link.com,2013-02-12 15:38:00,
2013-02-12 09:53:00,23.4,20.9,29.89,West,270,6.8,-999.0,90,-99.99,,,0.00,Acu-Link.com,2013-02-12 15:53:00,
2013-02-12 10:08:00,23.4,20.9,29.89,WSW,247,8.3,-999.0,90,-99.99,,,0.00,Acu-Link.com,2013-02-12 16:08:00,
2013-02-12 10:23:00,24.1,20.8,29.89,West,270,4.2,-999.0,87,-99.99,,,0.00,Acu-Link.com,2013-02-12 16:23:00,
2013-02-12 10:38:00,25.2,21.9,29.90,West,270,4.7,-999.0,87,-99.99,,,0.00,Acu-Link.com,2013-02-12 16:38:00,
2013-02-12 10:54:00,24.6,21.3,29.90,WSW,247,7.8,-999.0,87,-99.99,,,0.00,Acu-Link.com,2013-02-12 16:54:00,
2013-02-12 11:09:00,24.8,21.2,29.90,SW,225,10.9,-999.0,86,-99.99,,,0.00,Acu-Link.com,2013-02-12 17:09:00,
2013-02-12 11:24:00,25.5,20.8,29.91,WNW,292,11.9,-999.0,82,-99.99,,,0.00,Acu-Link.com,2013-02-12 17:24:00,
2013-02-12 11:39:00,25.3,20.9,29.90,WSW,247,7.3,-999.0,83,-99.99,,,0.00,Acu-Link.com,2013-02-12 17:39:00,
2013-02-12 11:55:00,25.5,21.4,29.88,WSW,247,7.8,-999.0,84,-99.99,,,0.00,Acu-Link.com,2013-02-12 17:55:00,
2013-02-12 12:10:00,25.5,20.8,29.87,SW,225,6.3,-999.0,82,-99.99,,,0.00,Acu-Link.com,2013-02-12 18:10:00,
2013-02-12 12:25:00,26.4,21.1,29.85,West,270,5.8,-999.0,80,-99.99,,,0.00,Acu-Link.com,2013-02-12 18:25:00,
2013-02-12 12:40:00,26.6,20.4,29.85,WSW,247,6.3,-999.0,77,-99.99,,,0.00,Acu-Link.com,2013-02-12 18:40:00,
2013-02-12 12:55:00,26.8,20.0,29.84,WSW,247,9.4,-999.0,75,-99.99,,,0.00,Acu-Link.com,2013-02-12 18:55:00,
2013-02-12 13:11:00,26.6,20.1,29.84,WSW,247,4.7,-999.0,76,-99.99,,,0.00,Acu-Link.com,2013-02-12 19:11:00,
2013-02-12 13:26:00,28.6,20.7,29.84,West,270,8.9,-999.0,72,-99.99,,,0.00,Acu-Link.com,2013-02-12 19:26:00,
2013-02-12 13:41:00,28.4,20.5,29.82,SW,225,8.3,-999.0,72,-99.99,,,0.00,Acu-Link.com,2013-02-12 19:41:00,
2013-02-12 13:56:00,29.3,20.8,29.81,West,270,5.3,-999.0,70,-99.99,,,0.00,Acu-Link.com,2013-02-12 19:56:00,
2013-02-12 14:11:00,29.3,21.4,29.81,WSW,247,7.8,-999.0,72,-99.99,,,0.00,Acu-Link.com,2013-02-12 20:11:00,
2013-02-12 14:27:00,29.1,21.2,29.81,WSW,247,8.9,-999.0,72,-99.99,,,0.00,Acu-Link.com,2013-02-12 20:27:00,
2013-02-12 14:42:00,28.4,21.8,29.81,West,270,5.3,-999.0,76,-99.99,,,0.00,Acu-Link.com,2013-02-12 20:42:00,
2013-02-12 14:57:00,28.6,22.3,29.81,West,270,6.3,-999.0,77,-99.99,,,0.00,Acu-Link.com,2013-02-12 20:57:00,
2013-02-12 15:12:00,28.0,22.3,29.81,West,270,8.3,-999.0,79,-99.99,,,0.00,Acu-Link.com,2013-02-12 21:12:00,
2013-02-12 15:28:00,28.8,23.1,29.80,SW,225,7.3,-999.0,79,-99.99,,,0.00,Acu-Link.com,2013-02-12 21:28:00,
2013-02-12 15:43:00,27.9,22.8,29.81,WSW,247,8.9,-999.0,81,-99.99,,,0.00,Acu-Link.com,2013-02-12 21:43:00,
2013-02-12 15:58:00,27.1,23.2,29.80,WSW,247,8.3,-999.0,85,-99.99,,,0.00,Acu-Link.com,2013-02-12 21:58:00,
2013-02-12 16:13:00,27.0,22.8,29.80,SW,225,5.8,-999.0,84,-99.99,,,0.00,Acu-Link.com,2013-02-12 22:13:00,
2013-02-12 16:28:00,26.8,22.9,29.79,WSW,247,5.3,-999.0,85,-99.99,,,0.00,Acu-Link.com,2013-02-12 22:28:00,
2013-02-12 16:44:00,27.0,22.8,29.79,West,270,3.7,-999.0,84,-99.99,,,0.00,Acu-Link.com,2013-02-12 22:44:00,
2013-02-12 16:59:00,26.1,22.8,29.79,West,270,3.7,-999.0,87,-99.99,,,0.00,Acu-Link.com,2013-02-12 22:59:00,
2013-02-12 17:14:00,24.8,23.1,29.79,SW,225,3.7,-999.0,93,-99.99,,,0.00,Acu-Link.com,2013-02-12 23:14:00,
2013-02-12 17:29:00,23.9,23.2,29.80,SW,225,4.2,-999.0,97,-99.99,,,0.00,Acu-Link.com,2013-02-12 23:29:00,
2013-02-12 17:44:00,23.4,23.2,29.78,SW,225,3.7,-999.0,99,-99.99,,,0.00,Acu-Link.com,2013-02-12 23:44:00,
2013-02-12 18:00:00,22.8,22.6,29.79,SW,225,4.2,-999.0,99,-99.99,,,0.00,Acu-Link.com,2013-02-13 00:00:00,
2013-02-12 18:15:00,22.1,21.9,29.78,SW,225,3.2,-999.0,99,-99.99,,,0.00,Acu-Link.com,2013-02-13 00:15:00,
2013-02-12 18:30:00,22.1,21.9,29.77,SSW,202,2.7,-999.0,99,-99.99,,,0.00,Acu-Link.com,2013-02-13 00:30:00,
2013-02-12 18:45:00,20.8,20.6,29.76,West,270,0.0,-999.0,99,-99.99,,,0.00,Acu-Link.com,2013-02-13 00:45:00,
2013-02-12 19:00:00,19.6,19.4,29.77,WSW,247,0.0,-999.0,99,-99.99,,,0.00,Acu-Link.com,2013-02-13 01:00:00,
2013-02-12 19:16:00,18.7,18.5,29.76,SW,225,1.1,-999.0,99,-99.99,,,0.00,Acu-Link.com,2013-02-13 01:16:00,
2013-02-12 19:31:00,18.1,17.9,29.76,West,270,0.0,-999.0,99,-99.99,,,0.00,Acu-Link.com,2013-02-13 01:31:00,
2013-02-12 19:46:00,17.2,17.0,29.76,East,90,0.0,-999.0,99,-99.99,,,0.00,Acu-Link.com,2013-02-13 01:46:00,
2013-02-12 20:02:00,16.2,16.0,29.75,East,90,0.0,-999.0,99,-99.99,,,0.00,Acu-Link.com,2013-02-13 02:02:00,
2013-02-12 20:17:00,15.4,15.2,29.76,WSW,247,0.0,-999.0,99,-99.99,,,0.00,Acu-Link.com,2013-02-13 02:17:00,
2013-02-12 20:32:00,15.6,15.4,29.75,WSW,247,0.0,-999.0,99,-99.99,,,0.00,Acu-Link.com,2013-02-13 02:32:00,
2013-02-12 20:47:00,15.3,15.1,29.75,SE,135,0.0,-999.0,99,-99.99,,,0.00,Acu-Link.com,2013-02-13 02:47:00,
2013-02-12 21:02:00,14.7,14.5,29.74,East,90,0.0,-999.0,99,-99.99,,,0.00,Acu-Link.com,2013-02-13 03:02:00,
2013-02-12 21:18:00,14.7,14.5,29.74,NE,45,0.0,-999.0,99,-99.99,,,0.00,Acu-Link.com,2013-02-13 03:18:00,
2013-02-12 21:33:00,14.4,14.2,29.73,West,270,0.0,-999.0,99,-99.99,,,0.00,Acu-Link.com,2013-02-13 03:33:00,
2013-02-12 21:48:00,14.2,14.0,29.74,SSE,157,0.0,-999.0,99,-99.99,,,0.00,Acu-Link.com,2013-02-13 03:48:00,
2013-02-12 22:03:00,14.0,13.8,29.73,ESE,112,0.0,-999.0,99,-99.99,,,0.00,Acu-Link.com,2013-02-13 04:03:00,
2013-02-12 22:18:00,14.7,14.5,29.72,SE,135,0.0,-999.0,99,-99.99,,,0.00,Acu-Link.com,2013-02-13 04:18:00,
2013-02-12 22:34:00,15.1,14.9,29.72,North,0,0.0,-999.0,99,-99.99,,,0.00,Acu-Link.com,2013-02-13 04:34:00,
2013-02-12 22:49:00,20.3,20.1,29.72,SSW,202,3.2,-999.0,99,-99.99,,,0.00,Acu-Link.com,2013-02-13 04:49:00,
2013-02-12 23:04:00,21.0,20.8,29.71,SW,225,3.7,-999.0,99,-99.99,,,0.00,Acu-Link.com,2013-02-13 05:04:00,
2013-02-12 23:19:00,21.9,21.7,29.71,SW,225,3.7,-999.0,99,-99.99,,,0.00,Acu-Link.com,2013-02-13 05:19:00,
2013-02-12 23:34:00,21.9,21.7,29.71,SW,225,3.7,-999.0,99,-99.99,,,0.00,Acu-Link.com,2013-02-13 05:34:00,